Terminal Aerodrome Forecast
Issued by NWS Norman, OK

Home | Current Version | Previous Version | Text Only | Print | Product List | Glossary On
Versions: 1 2 3 4 5 6 7 8 9 10 11 12 13 14
000
FTUS44 KOUN 281124
TAFSPS
TAF
KSPS 281124Z 2812/2912 11010KT P6SM SCT150 OVC250
     FM281400 01006KT P6SM BKN150
     FM290000 09011KT P6SM OVC060 PROB30 2903/2908 2SM TSRA OVC035CB
     FM290800 12013KT 3SM TSRA OVC025CB=

USA.gov is the U.S. government's official web portal to all federal, state and local government web resources and services.